Hlavní strana
METAR-TAF:

METAR-TAF

Letiště :

Mezinárodní letiště Subháse Čandry Boseho

Kalkata, Indie

zeměpisná šířka: 22-39N, zeměpisná délka: 088-27E, výška: 4 m

Aktuální stav počasí

Zpráva byla vytvořena před 28 minutami, v 23:30 UTC
Západní vítr 3 kt
Teplota 25°C
Vlhkost vzduchu 94%
Tlak 1011 hPa
Viditelnost: 2600 m
Skoro jasno ve výšce 2000 ft
kouřmo

METAR: VECC 152330Z 27003KT 2600 BR FEW020 25/24 Q1011 NOSIG

Čas: 05:28 (23:58 UTC)

Předpověď počasí

Zpráva byla vytvořena před 3 hodinami a 58 minutami, v 20:00 UTC
Předpověď platná od 15 v 21 UTC do 16 v 06 UTC
Severní vítr kt
Viditelnost: 2200 m
Skoro jasno ve výšce 2000 ft
kouřmo
Změna
od 16 v 02 UTC do 16 v 04 UTC
Západní vítr 5 kt
Viditelnost: 3500 m
zákal

TAF: VECC 152000Z 1521/1606 00000KT 2200 BR FEW020 BECMG 1602/1604 27005KT 3500 HZ

Stav a předpovědi počasí z více než 4 000 letišť (zprávy METAR a TAF).

Červené a žluté tečky na mapě představují dostupné meteorologické stanice.

Když kurzor umístíte na tečku, zobrazí se název stanice.

Pak kliknutím zobrazíte stav a předpověď počasí.

Chcete-li změnit mapu, kliknutím na zelené tlačítko se znaménkem +mapu přiblížíte, kliknutím na zelené tlačítko se znaménkem – mapu oddálíte a kliknutím na zelené šipky přejdete na sousední mapy.


METAR-TAF: